sensor_id;sensor_type;location;lat;lon;timestamp;P1;durP1;ratioP1;P2;durP2;ratioP2
17528;SDS011;8882;53.192;8.184;2023-07-22T07:01:23;4.00;;;2.10;;
17528;SDS011;8882;53.192;8.184;2023-07-22T07:03:48;4.73;;;2.20;;
17528;SDS011;8882;53.192;8.184;2023-07-22T07:06:14;3.63;;;2.00;;
17528;SDS011;8882;53.192;8.184;2023-07-22T07:08:39;6.87;;;2.37;;
17528;SDS011;8882;53.192;8.184;2023-07-22T07:11:05;3.90;;;2.10;;
17528;SDS011;8882;53.192;8.184;2023-07-22T07:13:30;3.27;;;2.00;;
17528;SDS011;8882;53.192;8.184;2023-07-22T07:15:56;4.73;;;1.80;;
17528;SDS011;8882;53.192;8.184;2023-07-22T07:18:41;3.33;;;1.93;;
17528;SDS011;8882;53.192;8.184;2023-07-22T07:21:07;4.00;;;1.80;;
17528;SDS011;8882;53.192;8.184;2023-07-22T07:23:32;4.20;;;2.13;;
17528;SDS011;8882;53.192;8.184;2023-07-22T07:25:58;4.67;;;1.90;;
17528;SDS011;8882;53.192;8.184;2023-07-22T07:28:23;5.13;;;2.00;;
17528;SDS011;8882;53.192;8.184;2023-07-22T07:30:49;2.33;;;1.73;;
17528;SDS011;8882;53.192;8.184;2023-07-22T07:33:15;6.70;;;2.20;;
17528;SDS011;8882;53.192;8.184;2023-07-22T07:35:45;4.23;;;1.77;;
17528;SDS011;8882;53.192;8.184;2023-07-22T07:38:11;3.90;;;1.73;;
17528;SDS011;8882;53.192;8.184;2023-07-22T07:40:37;4.57;;;1.90;;
17528;SDS011;8882;53.192;8.184;2023-07-22T07:43:02;2.73;;;2.20;;
17528;SDS011;8882;53.192;8.184;2023-07-22T07:45:28;1.83;;;1.47;;
17528;SDS011;8882;53.192;8.184;2023-07-22T07:47:53;3.50;;;1.70;;
17528;SDS011;8882;53.192;8.184;2023-07-22T07:50:19;2.83;;;1.30;;
17528;SDS011;8882;53.192;8.184;2023-07-22T07:52:45;3.60;;;1.97;;
17528;SDS011;8882;53.192;8.184;2023-07-22T07:55:10;5.03;;;2.43;;
17528;SDS011;8882;53.192;8.184;2023-07-22T07:57:36;4.27;;;1.90;;
17528;SDS011;8882;53.192;8.184;2023-07-22T08:00:02;3.63;;;2.07;;
17528;SDS011;8882;53.192;8.184;2023-07-22T08:02:28;2.67;;;2.23;;
17528;SDS011;8882;53.192;8.184;2023-07-22T08:04:53;5.00;;;1.93;;
17528;SDS011;8882;53.192;8.184;2023-07-22T08:07:19;2.83;;;1.70;;
17528;SDS011;8882;53.192;8.184;2023-07-22T08:09:46;2.80;;;1.87;;
17528;SDS011;8882;53.192;8.184;2023-07-22T08:12:14;4.97;;;1.87;;
17528;SDS011;8882;53.192;8.184;2023-07-22T08:14:40;5.27;;;2.33;;
17528;SDS011;8882;53.192;8.184;2023-07-22T08:17:06;3.83;;;2.00;;
17528;SDS011;8882;53.192;8.184;2023-07-22T08:19:32;4.40;;;2.30;;
17528;SDS011;8882;53.192;8.184;2023-07-22T08:21:57;4.13;;;2.50;;
17528;SDS011;8882;53.192;8.184;2023-07-22T08:24:23;6.57;;;2.60;;
17528;SDS011;8882;53.192;8.184;2023-07-22T08:26:48;3.70;;;2.70;;
17528;SDS011;8882;53.192;8.184;2023-07-22T08:29:14;7.73;;;2.83;;
17528;SDS011;8882;53.192;8.184;2023-07-22T08:31:39;4.27;;;2.53;;
17528;SDS011;8882;53.192;8.184;2023-07-22T08:34:05;4.27;;;2.67;;
17528;SDS011;8882;53.192;8.184;2023-07-22T08:36:31;5.37;;;2.83;;
17528;SDS011;8882;53.192;8.184;2023-07-22T08:38:56;4.00;;;3.00;;
17528;SDS011;8882;53.192;8.184;2023-07-22T08:41:22;6.10;;;2.77;;
17528;SDS011;8882;53.192;8.184;2023-07-22T08:43:50;3.60;;;2.47;;
17528;SDS011;8882;53.192;8.184;2023-07-22T08:46:16;4.07;;;2.90;;
17528;SDS011;8882;53.192;8.184;2023-07-22T08:48:46;5.90;;;3.00;;
17528;SDS011;8882;53.192;8.184;2023-07-22T08:51:15;5.27;;;2.90;;
17528;SDS011;8882;53.192;8.184;2023-07-22T08:53:42;7.13;;;3.37;;
17528;SDS011;8882;53.192;8.184;2023-07-22T08:56:09;5.93;;;3.57;;
17528;SDS011;8882;53.192;8.184;2023-07-22T08:58:36;5.63;;;3.60;;
17528;SDS011;8882;53.192;8.184;2023-07-22T09:01:02;4.93;;;2.97;;
17528;SDS011;8882;53.192;8.184;2023-07-22T09:03:28;9.40;;;3.90;;
17528;SDS011;8882;53.192;8.184;2023-07-22T09:05:54;12.03;;;3.63;;
17528;SDS011;8882;53.192;8.184;2023-07-22T09:08:20;7.97;;;3.50;;
17528;SDS011;8882;53.192;8.184;2023-07-22T09:10:46;7.17;;;3.70;;
17528;SDS011;8882;53.192;8.184;2023-07-22T09:13:13;8.77;;;4.07;;
17528;SDS011;8882;53.192;8.184;2023-07-22T09:15:39;8.37;;;3.90;;
17528;SDS011;8882;53.192;8.184;2023-07-22T09:18:07;7.03;;;4.00;;
17528;SDS011;8882;53.192;8.184;2023-07-22T09:20:33;6.07;;;3.37;;
17528;SDS011;8882;53.192;8.184;2023-07-22T09:22:59;6.57;;;3.53;;
17528;SDS011;8882;53.192;8.184;2023-07-22T09:25:26;6.00;;;3.80;;
17528;SDS011;8882;53.192;8.184;2023-07-22T09:27:53;9.07;;;3.90;;
17528;SDS011;8882;53.192;8.184;2023-07-22T09:32:45;6.57;;;3.97;;
17528;SDS011;8882;53.192;8.184;2023-07-22T09:35:11;6.77;;;3.67;;
17528;SDS011;8882;53.192;8.184;2023-07-22T09:37:37;10.00;;;4.10;;
17528;SDS011;8882;53.192;8.184;2023-07-22T09:40:25;8.63;;;3.40;;
17528;SDS011;8882;53.192;8.184;2023-07-22T09:42:51;6.17;;;4.20;;
17528;SDS011;8882;53.192;8.184;2023-07-22T09:45:18;7.03;;;3.57;;
17528;SDS011;8882;53.192;8.184;2023-07-22T09:47:46;10.23;;;4.10;;
17528;SDS011;8882;53.192;8.184;2023-07-22T09:50:20;10.60;;;3.93;;
17528;SDS011;8882;53.192;8.184;2023-07-22T09:52:57;8.33;;;3.63;;
17528;SDS011;8882;53.192;8.184;2023-07-22T09:55:24;5.53;;;3.47;;
17528;SDS011;8882;53.192;8.184;2023-07-22T09:57:53;7.83;;;3.10;;
17528;SDS011;8882;53.192;8.184;2023-07-22T10:00:33;3.73;;;2.87;;
17528;SDS011;8882;53.192;8.184;2023-07-22T10:03:01;7.47;;;3.20;;
17528;SDS011;8882;53.192;8.184;2023-07-22T10:05:29;4.73;;;2.80;;
17528;SDS011;8882;53.192;8.184;2023-07-22T10:07:58;5.63;;;3.07;;
17528;SDS011;8882;53.192;8.184;2023-07-22T10:10:30;4.43;;;2.80;;
17528;SDS011;8882;53.192;8.184;2023-07-22T10:12:56;4.57;;;2.80;;
17528;SDS011;8882;53.192;8.184;2023-07-22T10:15:24;4.07;;;2.73;;
17528;SDS011;8882;53.192;8.184;2023-07-22T10:17:52;3.43;;;2.20;;
17528;SDS011;8882;53.192;8.184;2023-07-22T10:20:19;6.43;;;2.63;;
17528;SDS011;8882;53.192;8.184;2023-07-22T10:22:46;4.20;;;2.90;;
17528;SDS011;8882;53.192;8.184;2023-07-22T10:25:14;3.67;;;2.50;;
17528;SDS011;8882;53.192;8.184;2023-07-22T10:27:41;3.60;;;2.67;;
17528;SDS011;8882;53.192;8.184;2023-07-22T10:32:41;4.33;;;2.80;;
17528;SDS011;8882;53.192;8.184;2023-07-22T10:35:13;6.73;;;2.83;;
17528;SDS011;8882;53.192;8.184;2023-07-22T10:37:46;10.83;;;3.50;;
17528;SDS011;8882;53.192;8.184;2023-07-22T10:43:00;4.97;;;3.33;;
17528;SDS011;8882;53.192;8.184;2023-07-22T10:45:30;4.73;;;2.93;;
17528;SDS011;8882;53.192;8.184;2023-07-22T10:48:05;4.87;;;2.70;;
17528;SDS011;8882;53.192;8.184;2023-07-22T10:50:38;4.00;;;2.00;;
17528;SDS011;8882;53.192;8.184;2023-07-22T10:53:05;4.80;;;2.00;;
17528;SDS011;8882;53.192;8.184;2023-07-22T10:55:31;2.93;;;2.20;;
17528;SDS011;8882;53.192;8.184;2023-07-22T10:57:58;5.57;;;2.63;;
17528;SDS011;8882;53.192;8.184;2023-07-22T11:00:29;4.60;;;2.60;;
17528;SDS011;8882;53.192;8.184;2023-07-22T11:03:13;5.23;;;3.10;;
17528;SDS011;8882;53.192;8.184;2023-07-22T11:05:47;4.30;;;2.83;;
17528;SDS011;8882;53.192;8.184;2023-07-22T11:08:14;5.53;;;2.50;;
17528;SDS011;8882;53.192;8.184;2023-07-22T11:10:51;5.70;;;2.97;;
17528;SDS011;8882;53.192;8.184;2023-07-22T11:13:18;3.70;;;2.53;;
17528;SDS011;8882;53.192;8.184;2023-07-22T11:15:47;3.30;;;2.47;;
17528;SDS011;8882;53.192;8.184;2023-07-22T11:18:12;4.83;;;2.63;;
17528;SDS011;8882;53.192;8.184;2023-07-22T11:20:38;5.40;;;2.70;;
17528;SDS011;8882;53.192;8.184;2023-07-22T11:23:03;4.23;;;2.53;;
17528;SDS011;8882;53.192;8.184;2023-07-22T11:25:29;3.60;;;2.73;;
17528;SDS011;8882;53.192;8.184;2023-07-22T11:27:59;7.70;;;2.70;;
17528;SDS011;8882;53.192;8.184;2023-07-22T11:30:24;3.83;;;2.50;;
17528;SDS011;8882;53.192;8.184;2023-07-22T11:32:50;4.73;;;2.80;;
17528;SDS011;8882;53.192;8.184;2023-07-22T11:35:15;4.70;;;2.83;;
17528;SDS011;8882;53.192;8.184;2023-07-22T11:37:42;4.50;;;3.03;;
17528;SDS011;8882;53.192;8.184;2023-07-22T11:40:11;4.07;;;3.00;;
17528;SDS011;8882;53.192;8.184;2023-07-22T11:42:37;4.27;;;3.00;;
17528;SDS011;8882;53.192;8.184;2023-07-22T11:45:03;4.37;;;2.40;;
17528;SDS011;8882;53.192;8.184;2023-07-22T11:47:30;7.23;;;3.17;;
17528;SDS011;8882;53.192;8.184;2023-07-22T11:49:58;9.97;;;3.30;;
17528;SDS011;8882;53.192;8.184;2023-07-22T11:52:24;4.93;;;3.33;;
17528;SDS011;8882;53.192;8.184;2023-07-22T11:54:49;3.70;;;3.10;;
17528;SDS011;8882;53.192;8.184;2023-07-22T11:59:54;6.23;;;3.80;;
17528;SDS011;8882;53.192;8.184;2023-07-22T12:02:24;6.97;;;4.33;;
17528;SDS011;8882;53.192;8.184;2023-07-22T12:05:00;7.83;;;4.20;;
17528;SDS011;8882;53.192;8.184;2023-07-22T12:07:27;7.03;;;4.40;;
17528;SDS011;8882;53.192;8.184;2023-07-22T12:09:55;5.77;;;3.80;;
17528;SDS011;8882;53.192;8.184;2023-07-22T12:12:21;6.67;;;4.40;;
17528;SDS011;8882;53.192;8.184;2023-07-22T12:15:04;9.50;;;4.83;;
17528;SDS011;8882;53.192;8.184;2023-07-22T12:17:42;8.93;;;4.73;;
17528;SDS011;8882;53.192;8.184;2023-07-22T12:20:09;7.03;;;4.30;;
17528;SDS011;8882;53.192;8.184;2023-07-22T12:22:35;8.00;;;4.27;;
17528;SDS011;8882;53.192;8.184;2023-07-22T12:25:00;7.87;;;4.70;;
17528;SDS011;8882;53.192;8.184;2023-07-22T12:27:26;6.97;;;4.00;;
17528;SDS011;8882;53.192;8.184;2023-07-22T12:29:51;8.87;;;4.93;;
17528;SDS011;8882;53.192;8.184;2023-07-22T12:32:17;6.97;;;4.27;;
17528;SDS011;8882;53.192;8.184;2023-07-22T12:34:42;7.30;;;4.60;;
17528;SDS011;8882;53.192;8.184;2023-07-22T12:37:08;5.43;;;3.77;;
17528;SDS011;8882;53.192;8.184;2023-07-22T12:39:33;5.60;;;3.90;;
17528;SDS011;8882;53.192;8.184;2023-07-22T12:41:59;4.63;;;3.30;;
17528;SDS011;8882;53.192;8.184;2023-07-22T12:44:24;9.53;;;4.27;;
17528;SDS011;8882;53.192;8.184;2023-07-22T12:46:50;5.83;;;3.77;;
17528;SDS011;8882;53.192;8.184;2023-07-22T12:49:15;5.83;;;3.60;;
17528;SDS011;8882;53.192;8.184;2023-07-22T12:51:41;4.97;;;3.77;;
17528;SDS011;8882;53.192;8.184;2023-07-22T12:54:06;3.87;;;3.10;;
17528;SDS011;8882;53.192;8.184;2023-07-22T12:56:32;4.63;;;3.03;;
17528;SDS011;8882;53.192;8.184;2023-07-22T12:58:57;5.43;;;3.30;;
17528;SDS011;8882;53.192;8.184;2023-07-22T13:01:22;4.77;;;3.30;;
17528;SDS011;8882;53.192;8.184;2023-07-22T13:03:48;4.73;;;3.33;;
17528;SDS011;8882;53.192;8.184;2023-07-22T13:06:13;4.63;;;3.27;;
17528;SDS011;8882;53.192;8.184;2023-07-22T13:08:39;5.47;;;3.00;;
17528;SDS011;8882;53.192;8.184;2023-07-22T13:11:04;5.07;;;3.30;;
17528;SDS011;8882;53.192;8.184;2023-07-22T13:13:30;5.80;;;5.00;;
17528;SDS011;8882;53.192;8.184;2023-07-22T13:15:55;8.33;;;6.27;;
17528;SDS011;8882;53.192;8.184;2023-07-22T13:18:21;10.23;;;7.33;;
17528;SDS011;8882;53.192;8.184;2023-07-22T13:20:46;7.20;;;5.77;;
17528;SDS011;8882;53.192;8.184;2023-07-22T13:23:12;4.67;;;4.07;;
17528;SDS011;8882;53.192;8.184;2023-07-22T13:25:37;8.97;;;4.77;;
17528;SDS011;8882;53.192;8.184;2023-07-22T13:28:03;4.27;;;2.80;;
17528;SDS011;8882;53.192;8.184;2023-07-22T13:30:28;4.70;;;3.37;;
17528;SDS011;8882;53.192;8.184;2023-07-22T13:32:54;5.70;;;3.57;;
17528;SDS011;8882;53.192;8.184;2023-07-22T13:35:21;8.70;;;4.93;;
17528;SDS011;8882;53.192;8.184;2023-07-22T13:37:47;5.00;;;3.50;;
17528;SDS011;8882;53.192;8.184;2023-07-22T13:40:12;4.93;;;3.23;;
17528;SDS011;8882;53.192;8.184;2023-07-22T13:42:38;8.67;;;3.37;;
17528;SDS011;8882;53.192;8.184;2023-07-22T13:45:04;5.67;;;4.37;;
17528;SDS011;8882;53.192;8.184;2023-07-22T13:47:30;6.43;;;4.27;;
17528;SDS011;8882;53.192;8.184;2023-07-22T13:49:56;6.47;;;4.07;;
17528;SDS011;8882;53.192;8.184;2023-07-22T13:52:22;8.00;;;4.93;;
17528;SDS011;8882;53.192;8.184;2023-07-22T13:54:47;6.73;;;4.00;;
17528;SDS011;8882;53.192;8.184;2023-07-22T13:57:13;8.67;;;5.03;;
17528;SDS011;8882;53.192;8.184;2023-07-22T13:59:38;6.63;;;4.27;;
17528;SDS011;8882;53.192;8.184;2023-07-22T14:02:04;6.67;;;4.27;;
17528;SDS011;8882;53.192;8.184;2023-07-22T14:04:30;7.50;;;3.97;;
17528;SDS011;8882;53.192;8.184;2023-07-22T14:06:55;7.93;;;4.47;;
17528;SDS011;8882;53.192;8.184;2023-07-22T14:09:21;7.53;;;4.20;;
17528;SDS011;8882;53.192;8.184;2023-07-22T14:11:46;5.73;;;4.40;;
17528;SDS011;8882;53.192;8.184;2023-07-22T14:14:12;9.03;;;4.63;;
17528;SDS011;8882;53.192;8.184;2023-07-22T14:16:37;5.57;;;4.73;;
17528;SDS011;8882;53.192;8.184;2023-07-22T14:19:03;7.20;;;4.73;;
17528;SDS011;8882;53.192;8.184;2023-07-22T14:21:28;8.37;;;4.87;;
17528;SDS011;8882;53.192;8.184;2023-07-22T14:23:54;7.37;;;4.50;;
17528;SDS011;8882;53.192;8.184;2023-07-22T14:26:20;6.40;;;4.00;;
17528;SDS011;8882;53.192;8.184;2023-07-22T14:28:45;6.03;;;4.23;;
17528;SDS011;8882;53.192;8.184;2023-07-22T14:31:11;7.33;;;4.37;;
17528;SDS011;8882;53.192;8.184;2023-07-22T14:33:37;7.30;;;5.07;;
17528;SDS011;8882;53.192;8.184;2023-07-22T14:36:02;7.33;;;4.67;;
17528;SDS011;8882;53.192;8.184;2023-07-22T14:38:28;6.70;;;4.57;;
17528;SDS011;8882;53.192;8.184;2023-07-22T14:40:54;8.30;;;4.60;;
17528;SDS011;8882;53.192;8.184;2023-07-22T14:43:19;7.43;;;4.90;;
17528;SDS011;8882;53.192;8.184;2023-07-22T14:45:45;8.37;;;5.10;;
17528;SDS011;8882;53.192;8.184;2023-07-22T14:48:10;5.93;;;4.43;;
17528;SDS011;8882;53.192;8.184;2023-07-22T14:50:36;6.43;;;4.77;;
17528;SDS011;8882;53.192;8.184;2023-07-22T14:53:01;6.40;;;5.00;;
17528;SDS011;8882;53.192;8.184;2023-07-22T14:55:27;8.60;;;4.90;;
17528;SDS011;8882;53.192;8.184;2023-07-22T14:57:53;7.40;;;4.60;;
17528;SDS011;8882;53.192;8.184;2023-07-22T15:00:18;10.50;;;5.83;;
17528;SDS011;8882;53.192;8.184;2023-07-22T15:02:44;8.03;;;5.20;;
17528;SDS011;8882;53.192;8.184;2023-07-22T15:05:09;6.63;;;4.73;;
17528;SDS011;8882;53.192;8.184;2023-07-22T15:07:35;5.93;;;4.97;;
17528;SDS011;8882;53.192;8.184;2023-07-22T15:10:00;7.37;;;4.40;;
17528;SDS011;8882;53.192;8.184;2023-07-22T15:12:27;10.07;;;5.00;;
17528;SDS011;8882;53.192;8.184;2023-07-22T15:14:52;6.43;;;4.20;;
17528;SDS011;8882;53.192;8.184;2023-07-22T15:17:18;6.03;;;4.40;;
17528;SDS011;8882;53.192;8.184;2023-07-22T15:19:43;6.00;;;4.20;;
17528;SDS011;8882;53.192;8.184;2023-07-22T15:22:09;6.33;;;4.37;;
17528;SDS011;8882;53.192;8.184;2023-07-22T15:24:34;5.77;;;4.10;;
17528;SDS011;8882;53.192;8.184;2023-07-22T15:27:00;6.53;;;3.97;;
17528;SDS011;8882;53.192;8.184;2023-07-22T15:29:25;7.10;;;3.50;;
17528;SDS011;8882;53.192;8.184;2023-07-22T15:31:50;5.13;;;3.10;;
17528;SDS011;8882;53.192;8.184;2023-07-22T15:34:16;5.47;;;3.23;;
17528;SDS011;8882;53.192;8.184;2023-07-22T15:36:41;9.30;;;4.60;;
17528;SDS011;8882;53.192;8.184;2023-07-22T15:39:07;5.67;;;3.17;;
17528;SDS011;8882;53.192;8.184;2023-07-22T15:41:33;5.73;;;3.10;;
17528;SDS011;8882;53.192;8.184;2023-07-22T15:43:59;4.90;;;2.90;;
17528;SDS011;8882;53.192;8.184;2023-07-22T15:46:24;5.40;;;3.27;;
17528;SDS011;8882;53.192;8.184;2023-07-22T15:48:50;4.83;;;2.67;;
17528;SDS011;8882;53.192;8.184;2023-07-22T15:51:15;3.23;;;2.47;;
17528;SDS011;8882;53.192;8.184;2023-07-22T15:53:41;4.97;;;2.67;;
17528;SDS011;8882;53.192;8.184;2023-07-22T15:56:06;3.87;;;2.83;;
17528;SDS011;8882;53.192;8.184;2023-07-22T15:58:33;4.90;;;3.00;;
17528;SDS011;8882;53.192;8.184;2023-07-22T16:00:58;4.57;;;2.87;;
17528;SDS011;8882;53.192;8.184;2023-07-22T16:03:24;2.77;;;2.47;;
17528;SDS011;8882;53.192;8.184;2023-07-22T16:05:49;5.40;;;3.10;;
17528;SDS011;8882;53.192;8.184;2023-07-22T16:08:15;5.13;;;3.07;;
17528;SDS011;8882;53.192;8.184;2023-07-22T16:10:40;6.77;;;3.07;;
17528;SDS011;8882;53.192;8.184;2023-07-22T16:13:06;4.77;;;2.87;;
17528;SDS011;8882;53.192;8.184;2023-07-22T16:15:34;3.10;;;2.80;;
17528;SDS011;8882;53.192;8.184;2023-07-22T16:17:59;3.67;;;3.13;;
17528;SDS011;8882;53.192;8.184;2023-07-22T16:20:25;4.37;;;3.57;;
17528;SDS011;8882;53.192;8.184;2023-07-22T16:22:51;4.83;;;3.50;;
17528;SDS011;8882;53.192;8.184;2023-07-22T16:25:16;5.43;;;3.70;;
17528;SDS011;8882;53.192;8.184;2023-07-22T16:27:42;4.90;;;3.87;;
17528;SDS011;8882;53.192;8.184;2023-07-22T16:30:07;5.90;;;3.90;;
17528;SDS011;8882;53.192;8.184;2023-07-22T16:32:34;4.50;;;3.90;;
17528;SDS011;8882;53.192;8.184;2023-07-22T16:34:59;6.20;;;4.50;;
17528;SDS011;8882;53.192;8.184;2023-07-22T16:37:25;5.83;;;3.70;;
17528;SDS011;8882;53.192;8.184;2023-07-22T16:39:50;8.80;;;4.97;;
17528;SDS011;8882;53.192;8.184;2023-07-22T16:42:18;9.23;;;4.67;;
17528;SDS011;8882;53.192;8.184;2023-07-22T16:44:45;8.20;;;4.77;;
17528;SDS011;8882;53.192;8.184;2023-07-22T16:47:11;7.10;;;4.93;;
17528;SDS011;8882;53.192;8.184;2023-07-22T16:49:36;7.23;;;5.37;;
17528;SDS011;8882;53.192;8.184;2023-07-22T16:52:02;10.07;;;6.00;;
17528;SDS011;8882;53.192;8.184;2023-07-22T16:54:27;17.90;;;6.13;;
17528;SDS011;8882;53.192;8.184;2023-07-22T16:56:53;7.77;;;5.70;;
17528;SDS011;8882;53.192;8.184;2023-07-22T16:59:18;7.43;;;5.60;;
17528;SDS011;8882;53.192;8.184;2023-07-22T17:01:44;11.00;;;5.67;;
17528;SDS011;8882;53.192;8.184;2023-07-22T17:04:09;8.97;;;5.87;;
17528;SDS011;8882;53.192;8.184;2023-07-22T17:06:36;8.37;;;6.10;;
17528;SDS011;8882;53.192;8.184;2023-07-22T17:09:02;9.93;;;6.40;;
17528;SDS011;8882;53.192;8.184;2023-07-22T17:11:27;10.63;;;6.50;;
17528;SDS011;8882;53.192;8.184;2023-07-22T17:13:53;11.37;;;6.53;;
17528;SDS011;8882;53.192;8.184;2023-07-22T17:16:18;10.23;;;6.13;;
17528;SDS011;8882;53.192;8.184;2023-07-22T17:18:44;8.60;;;5.37;;
17528;SDS011;8882;53.192;8.184;2023-07-22T17:21:09;9.53;;;6.77;;
17528;SDS011;8882;53.192;8.184;2023-07-22T17:23:36;10.60;;;5.80;;
17528;SDS011;8882;53.192;8.184;2023-07-22T17:26:02;8.57;;;5.63;;
17528;SDS011;8882;53.192;8.184;2023-07-22T17:28:28;8.27;;;5.80;;
17528;SDS011;8882;53.192;8.184;2023-07-22T17:30:57;9.17;;;5.50;;
17528;SDS011;8882;53.192;8.184;2023-07-22T17:33:25;9.73;;;5.13;;
17528;SDS011;8882;53.192;8.184;2023-07-22T17:35:51;7.83;;;5.47;;
17528;SDS011;8882;53.192;8.184;2023-07-22T17:38:17;9.57;;;5.10;;
17528;SDS011;8882;53.192;8.184;2023-07-22T17:40:43;7.83;;;4.87;;
17528;SDS011;8882;53.192;8.184;2023-07-22T17:43:11;5.20;;;4.13;;
17528;SDS011;8882;53.192;8.184;2023-07-22T17:45:37;7.77;;;5.43;;
17528;SDS011;8882;53.192;8.184;2023-07-22T17:48:02;6.00;;;4.33;;
17528;SDS011;8882;53.192;8.184;2023-07-22T17:50:29;6.63;;;4.43;;
17528;SDS011;8882;53.192;8.184;2023-07-22T17:52:55;6.87;;;4.10;;
17528;SDS011;8882;53.192;8.184;2023-07-22T17:55:20;4.80;;;4.23;;
17528;SDS011;8882;53.192;8.184;2023-07-22T17:57:46;5.93;;;4.13;;
17528;SDS011;8882;53.192;8.184;2023-07-22T18:00:12;8.37;;;4.77;;
17528;SDS011;8882;53.192;8.184;2023-07-22T18:02:38;6.77;;;4.30;;
17528;SDS011;8882;53.192;8.184;2023-07-22T18:05:04;7.03;;;4.70;;
17528;SDS011;8882;53.192;8.184;2023-07-22T18:07:30;7.13;;;4.63;;
17528;SDS011;8882;53.192;8.184;2023-07-22T18:09:55;6.93;;;4.80;;
17528;SDS011;8882;53.192;8.184;2023-07-22T18:12:21;5.53;;;4.23;;
17528;SDS011;8882;53.192;8.184;2023-07-22T18:14:47;8.40;;;4.63;;
17528;SDS011;8882;53.192;8.184;2023-07-22T18:17:12;7.67;;;4.17;;
17528;SDS011;8882;53.192;8.184;2023-07-22T18:19:38;7.00;;;4.50;;
17528;SDS011;8882;53.192;8.184;2023-07-22T18:22:03;5.63;;;4.33;;
17528;SDS011;8882;53.192;8.184;2023-07-22T18:24:29;5.50;;;3.83;;
17528;SDS011;8882;53.192;8.184;2023-07-22T18:26:55;5.07;;;4.20;;
17528;SDS011;8882;53.192;8.184;2023-07-22T18:29:21;6.23;;;4.47;;
17528;SDS011;8882;53.192;8.184;2023-07-22T18:31:46;6.10;;;4.17;;
17528;SDS011;8882;53.192;8.184;2023-07-22T18:34:12;6.10;;;4.20;;
17528;SDS011;8882;53.192;8.184;2023-07-22T18:36:38;7.60;;;5.20;;
17528;SDS011;8882;53.192;8.184;2023-07-22T18:39:04;5.13;;;4.23;;
17528;SDS011;8882;53.192;8.184;2023-07-22T18:41:30;6.47;;;4.67;;
17528;SDS011;8882;53.192;8.184;2023-07-22T18:43:55;6.00;;;4.57;;
17528;SDS011;8882;53.192;8.184;2023-07-22T18:46:21;6.37;;;4.33;;
17528;SDS011;8882;53.192;8.184;2023-07-22T18:48:47;5.80;;;4.67;;
17528;SDS011;8882;53.192;8.184;2023-07-22T18:51:16;5.83;;;4.30;;
17528;SDS011;8882;53.192;8.184;2023-07-22T18:53:42;6.47;;;4.17;;
17528;SDS011;8882;53.192;8.184;2023-07-22T18:56:07;8.23;;;4.17;;
17528;SDS011;8882;53.192;8.184;2023-07-22T18:58:33;4.40;;;3.93;;
17528;SDS011;8882;53.192;8.184;2023-07-22T19:00:59;6.00;;;4.37;;
17528;SDS011;8882;53.192;8.184;2023-07-22T19:03:25;5.77;;;3.53;;
17528;SDS011;8882;53.192;8.184;2023-07-22T19:05:51;5.90;;;3.83;;
17528;SDS011;8882;53.192;8.184;2023-07-22T19:08:24;6.27;;;3.63;;
17528;SDS011;8882;53.192;8.184;2023-07-22T19:10:51;7.70;;;4.07;;
17528;SDS011;8882;53.192;8.184;2023-07-22T19:13:17;8.13;;;4.27;;
17528;SDS011;8882;53.192;8.184;2023-07-22T19:15:46;5.40;;;4.03;;
17528;SDS011;8882;53.192;8.184;2023-07-22T19:18:15;4.53;;;3.43;;
17528;SDS011;8882;53.192;8.184;2023-07-22T19:20:41;4.80;;;3.80;;
17528;SDS011;8882;53.192;8.184;2023-07-22T19:23:07;5.93;;;3.97;;
17528;SDS011;8882;53.192;8.184;2023-07-22T19:25:36;5.83;;;3.80;;
17528;SDS011;8882;53.192;8.184;2023-07-22T19:28:02;7.10;;;3.87;;
17528;SDS011;8882;53.192;8.184;2023-07-22T19:30:28;4.57;;;4.03;;
17528;SDS011;8882;53.192;8.184;2023-07-22T19:32:53;4.37;;;3.60;;
17528;SDS011;8882;53.192;8.184;2023-07-22T19:35:19;6.50;;;3.93;;
17528;SDS011;8882;53.192;8.184;2023-07-22T19:37:48;5.37;;;3.90;;
17528;SDS011;8882;53.192;8.184;2023-07-22T19:40:13;9.53;;;4.60;;
17528;SDS011;8882;53.192;8.184;2023-07-22T19:42:39;6.77;;;4.90;;
17528;SDS011;8882;53.192;8.184;2023-07-22T19:45:06;6.27;;;4.67;;
17528;SDS011;8882;53.192;8.184;2023-07-22T19:47:32;7.47;;;3.93;;
17528;SDS011;8882;53.192;8.184;2023-07-22T19:49:57;6.10;;;4.27;;
17528;SDS011;8882;53.192;8.184;2023-07-22T19:52:23;5.03;;;4.03;;
17528;SDS011;8882;53.192;8.184;2023-07-22T19:54:48;5.33;;;3.97;;
17528;SDS011;8882;53.192;8.184;2023-07-22T19:57:14;5.00;;;4.23;;
17528;SDS011;8882;53.192;8.184;2023-07-22T19:59:39;7.67;;;4.50;;
17528;SDS011;8882;53.192;8.184;2023-07-22T20:02:05;7.33;;;4.63;;
17528;SDS011;8882;53.192;8.184;2023-07-22T20:04:31;6.67;;;4.13;;
17528;SDS011;8882;53.192;8.184;2023-07-22T20:06:58;6.30;;;4.07;;
17528;SDS011;8882;53.192;8.184;2023-07-22T20:09:24;5.07;;;4.20;;
17528;SDS011;8882;53.192;8.184;2023-07-22T20:11:50;6.10;;;4.37;;
17528;SDS011;8882;53.192;8.184;2023-07-22T20:14:16;5.00;;;4.07;;
17528;SDS011;8882;53.192;8.184;2023-07-22T20:16:41;6.00;;;4.17;;
17528;SDS011;8882;53.192;8.184;2023-07-22T20:19:07;7.17;;;5.37;;
17528;SDS011;8882;53.192;8.184;2023-07-22T20:21:32;5.73;;;4.30;;
17528;SDS011;8882;53.192;8.184;2023-07-22T20:23:58;6.17;;;4.73;;
17528;SDS011;8882;53.192;8.184;2023-07-22T20:26:23;8.43;;;5.03;;
17528;SDS011;8882;53.192;8.184;2023-07-22T20:28:49;9.20;;;5.53;;
17528;SDS011;8882;53.192;8.184;2023-07-22T20:31:15;5.57;;;4.80;;
17528;SDS011;8882;53.192;8.184;2023-07-22T20:33:40;6.37;;;5.07;;
17528;SDS011;8882;53.192;8.184;2023-07-22T20:36:06;6.40;;;5.20;;
17528;SDS011;8882;53.192;8.184;2023-07-22T20:38:32;6.90;;;4.90;;
17528;SDS011;8882;53.192;8.184;2023-07-22T20:41:01;7.77;;;4.77;;
17528;SDS011;8882;53.192;8.184;2023-07-22T20:43:28;8.53;;;5.30;;
17528;SDS011;8882;53.192;8.184;2023-07-22T20:45:53;7.70;;;5.53;;
17528;SDS011;8882;53.192;8.184;2023-07-22T20:48:19;6.67;;;5.33;;
17528;SDS011;8882;53.192;8.184;2023-07-22T20:50:44;9.20;;;5.97;;
17528;SDS011;8882;53.192;8.184;2023-07-22T20:53:10;8.60;;;6.00;;
17528;SDS011;8882;53.192;8.184;2023-07-22T20:55:35;8.67;;;6.70;;
17528;SDS011;8882;53.192;8.184;2023-07-22T20:58:01;12.17;;;6.83;;
